Time;durP1;ratioP1;P1;durP2;ratioP2;P2;SDS_P1;SDS_P2;PMS_P1;PMS_P2;Temp;Humidity;BMP_temperature;BMP_pressure;BME280_temperature;BME280_humidity;BME280_pressure;Samples;Min_cycle;Max_cycle;Signal;HPM_P1;HPM_P2
2024/01/26 00:00:46;;;;;;;27.67;16.15;;;;;;;8.96;100.00;102188.03;5010706;28;20052;-69
2024/01/26 00:03:12;;;;;;;29.45;15.25;;;;;;;8.97;100.00;102183.53;5009587;28;20040;-69
2024/01/26 00:05:37;;;;;;;28.90;15.00;;;;;;;8.97;100.00;102179.00;4988935;28;20728;-69
2024/01/26 00:08:03;;;;;;;27.10;15.35;;;;;;;8.97;100.00;102165.59;5008582;28;20022;-69
2024/01/26 00:10:28;;;;;;;27.10;14.90;;;;;;;8.98;100.00;102167.34;5006972;28;20099;-69
2024/01/26 00:12:54;;;;;;;28.23;15.07;;;;;;;8.98;100.00;102164.69;5008313;28;20033;-69
2024/01/26 00:15:19;;;;;;;25.27;13.88;;;;;;;9.00;100.00;102161.94;5008261;28;20524;-69
2024/01/26 00:17:44;;;;;;;26.30;13.00;;;;;;;9.00;100.00;102162.78;5007161;28;20017;-68
2024/01/26 00:20:09;;;;;;;28.92;13.93;;;;;;;9.00;100.00;102169.97;4994945;28;20430;-68
2024/01/26 00:22:35;;;;;;;25.38;13.35;;;;;;;9.00;100.00;102170.81;4994393;28;20036;-69
2024/01/26 00:25:00;;;;;;;24.02;13.32;;;;;;;9.00;100.00;102167.28;5011587;28;20037;-68
2024/01/26 00:27:26;;;;;;;23.98;12.40;;;;;;;8.99;100.00;102169.09;4995124;28;20058;-69
2024/01/26 00:29:51;;;;;;;23.52;12.18;;;;;;;8.99;100.00;102166.44;4992714;28;20058;-68
2024/01/26 00:32:16;;;;;;;24.55;12.27;;;;;;;8.99;100.00;102166.44;5010136;28;20452;-68
2024/01/26 00:34:42;;;;;;;24.60;12.60;;;;;;;9.00;100.00;102173.50;4992308;28;20284;-68
2024/01/26 00:37:08;;;;;;;25.58;13.13;;;;;;;8.99;100.00;102166.44;5009992;28;20022;-68
2024/01/26 00:39:33;;;;;;;25.35;12.43;;;;;;;9.00;100.00;102165.47;5009494;28;20196;-68
2024/01/26 00:41:58;;;;;;;25.02;14.00;;;;;;;9.00;100.00;102161.94;5010473;28;20037;-68
2024/01/26 00:44:23;;;;;;;24.75;11.90;;;;;;;8.99;100.00;102158.38;5010408;28;20033;-68
2024/01/26 00:46:49;;;;;;;25.80;13.82;;;;;;;9.00;100.00;102157.41;5009562;28;20037;-68
2024/01/26 00:49:14;;;;;;;26.08;12.93;;;;;;;9.00;100.00;102152.06;4991935;28;20398;-68
2024/01/26 00:51:39;;;;;;;22.95;11.70;;;;;;;8.99;100.00;102150.34;5010923;28;20116;-68
2024/01/26 00:54:05;;;;;;;24.83;12.02;;;;;;;9.02;100.00;102144.84;5009626;28;20067;-69
2024/01/26 00:56:30;;;;;;;24.70;11.40;;;;;;;9.00;100.00;102145.84;5010611;28;20022;-69
2024/01/26 00:58:56;;;;;;;24.52;10.90;;;;;;;9.01;100.00;102159.16;5010784;28;20032;-68
2024/01/26 01:01:22;;;;;;;26.08;11.85;;;;;;;9.01;100.00;102158.31;5010486;28;20029;-68
2024/01/26 01:03:48;;;;;;;22.90;10.43;;;;;;;9.01;100.00;102151.13;5008584;28;20422;-68
2024/01/26 01:06:13;;;;;;;21.75;9.27;;;;;;;9.01;100.00;102148.44;4992584;28;20052;-68
2024/01/26 01:08:39;;;;;;;21.13;10.55;;;;;;;9.01;100.00;102151.13;5005382;28;20034;-68
2024/01/26 01:11:05;;;;;;;22.25;10.02;;;;;;;9.01;100.00;102145.75;5010438;28;20136;-68
2024/01/26 01:13:31;;;;;;;23.20;10.23;;;;;;;9.01;100.00;102151.13;5009187;28;20033;-68
2024/01/26 01:15:56;;;;;;;30.15;10.93;;;;;;;9.01;100.00;102145.75;5009040;28;20034;-68
2024/01/26 01:18:21;;;;;;;22.02;10.07;;;;;;;9.02;100.00;102143.94;5008433;28;20459;-68
2024/01/26 01:20:47;;;;;;;21.92;10.63;;;;;;;9.02;100.00;102138.56;5009033;28;20096;-68
2024/01/26 01:23:15;;;;;;;20.95;9.65;;;;;;;9.02;100.00;102128.75;4992327;28;21192;-68
2024/01/26 01:25:40;;;;;;;23.10;9.73;;;;;;;9.02;100.00;102126.06;4989468;28;20022;-68
2024/01/26 01:28:05;;;;;;;21.80;9.93;;;;;;;9.01;100.00;102116.25;5008900;28;20064;-68
2024/01/26 01:30:30;;;;;;;21.92;9.88;;;;;;;9.01;100.00;102121.63;5007102;28;20109;-69
2024/01/26 01:32:56;;;;;;;21.50;8.27;;;;;;;9.01;100.00;102121.63;4988590;28;20022;-69
2024/01/26 01:35:21;;;;;;;19.55;8.05;;;;;;;9.02;100.00;102123.38;5006823;28;20045;-69
2024/01/26 01:37:46;;;;;;;21.58;7.55;;;;;;;9.01;100.00;102113.59;4989144;28;20029;-69
2024/01/26 01:40:12;;;;;;;20.75;8.48;;;;;;;9.02;100.00;102117.13;5007034;28;20017;-69
2024/01/26 01:42:37;;;;;;;21.08;8.05;;;;;;;9.02;100.00;102112.66;4988011;28;20902;-69
2024/01/26 01:45:12;;;;;;;19.90;7.75;;;;;;;9.02;100.00;102115.34;5006975;28;20111;-69
2024/01/26 01:47:37;;;;;;;20.73;7.63;;;;;;;8.99;100.00;102107.44;5005722;28;20029;-69
2024/01/26 01:50:03;;;;;;;19.10;7.35;;;;;;;9.00;100.00;102097.56;5007240;28;20036;-69
2024/01/26 01:52:29;;;;;;;18.02;6.65;;;;;;;8.99;100.00;102096.72;5006416;28;20703;-68
2024/01/26 01:54:58;;;;;;;18.58;6.72;;;;;;;8.99;100.00;102095.81;4989151;28;20064;-68
2024/01/26 01:57:25;;;;;;;16.95;6.35;;;;;;;8.98;100.00;102100.31;5006073;28;20466;-68
2024/01/26 01:59:50;;;;;;;19.80;7.30;;;;;;;8.98;100.00;102092.28;5006418;28;20100;-69
2024/01/26 02:02:16;;;;;;;17.83;7.13;;;;;;;8.98;100.00;102084.22;5006401;28;20121;-68
2024/01/26 02:04:42;;;;;;;18.45;6.90;;;;;;;8.98;100.00;102086.91;5003369;28;20025;-67
2024/01/26 02:07:08;;;;;;;19.10;7.20;;;;;;;8.98;100.00;102080.69;4990431;28;20153;-68
2024/01/26 02:09:33;;;;;;;17.88;6.43;;;;;;;8.97;100.00;102079.81;5006289;28;20518;-68
2024/01/26 02:12:01;;;;;;;17.35;6.82;;;;;;;8.98;100.00;102076.19;4988950;28;20520;-68
2024/01/26 02:14:27;;;;;;;18.35;6.65;;;;;;;8.98;100.00;102068.16;5006218;28;20088;-68
2024/01/26 02:16:57;;;;;;;16.83;6.68;;;;;;;8.99;100.00;102067.22;5005272;28;20037;-68
2024/01/26 02:19:23;;;;;;;18.02;6.40;;;;;;;8.99;100.00;102069.00;5006784;28;20025;-68
2024/01/26 02:21:49;;;;;;;16.67;6.05;;;;;;;8.99;100.00;102066.31;5007755;28;20088;-67
2024/01/26 02:24:14;;;;;;;15.73;5.43;;;;;;;8.99;100.00;102067.22;5002518;28;20489;-67
2024/01/26 02:26:40;;;;;;;17.50;5.88;;;;;;;8.99;100.00;102059.16;5004793;28;20057;-68
2024/01/26 02:29:06;;;;;;;15.98;6.05;;;;;;;9.01;100.00;102059.09;4988880;28;20032;-68
2024/01/26 02:31:31;;;;;;;18.30;6.00;;;;;;;9.00;100.00;102060.88;5003525;28;20057;-68
2024/01/26 02:33:56;;;;;;;18.27;5.55;;;;;;;9.02;100.00;102052.75;5004418;28;20033;-68
2024/01/26 02:36:22;;;;;;;15.75;5.35;;;;;;;9.03;100.00;102054.50;5006833;28;20029;-68
2024/01/26 02:38:47;;;;;;;15.52;4.97;;;;;;;9.02;100.00;102042.94;5007762;28;20025;-67
2024/01/26 02:41:12;;;;;;;17.20;5.43;;;;;;;9.03;100.00;102035.75;4991218;28;20032;-69
2024/01/26 02:43:38;;;;;;;19.42;5.63;;;;;;;9.03;100.00;102033.91;5003210;28;20053;-68
2024/01/26 02:46:11;;;;;;;17.38;5.57;;;;;;;9.04;100.00;102035.66;5005363;28;20033;-67
2024/01/26 02:48:37;;;;;;;16.20;5.57;;;;;;;9.04;100.00;102033.00;4984750;28;20489;-68
2024/01/26 02:51:02;;;;;;;13.48;4.68;;;;;;;9.05;100.00;102021.31;5005729;28;20030;-68
2024/01/26 02:53:27;;;;;;;17.27;6.18;;;;;;;9.05;100.00;102018.66;5005980;28;20508;-69
2024/01/26 02:55:53;;;;;;;15.25;5.53;;;;;;;9.06;100.00;102023.06;5005397;28;20409;-68
2024/01/26 02:58:18;;;;;;;14.88;5.50;;;;;;;9.07;100.00;102011.38;4987540;28;20546;-69
2024/01/26 03:00:43;;;;;;;18.20;5.80;;;;;;;9.08;100.00;102006.91;5005650;28;20029;-68
2024/01/26 03:03:09;;;;;;;13.57;5.03;;;;;;;9.09;100.00;102006.84;4987674;28;20116;-68
2024/01/26 03:05:34;;;;;;;14.38;5.28;;;;;;;9.10;100.00;101991.59;4987259;28;20500;-68
2024/01/26 03:07:59;;;;;;;15.75;5.10;;;;;;;9.12;100.00;101996.88;5005596;28;20113;-68
2024/01/26 03:10:24;;;;;;;13.82;4.93;;;;;;;9.10;100.00;102000.50;5008927;28;20374;-68
2024/01/26 03:12:50;;;;;;;17.02;6.43;;;;;;;9.12;100.00;102005.78;5007162;28;20059;-69
2024/01/26 03:15:15;;;;;;;15.25;5.15;;;;;;;9.13;100.00;101998.63;5006029;28;20088;-69
2024/01/26 03:17:40;;;;;;;16.42;5.40;;;;;;;9.13;100.00;101987.91;4992288;28;20028;-69
2024/01/26 03:20:08;;;;;;;15.18;5.30;;;;;;;9.14;100.00;101976.25;5010237;28;20412;-67
2024/01/26 03:22:33;;;;;;;15.82;5.43;;;;;;;9.14;100.00;101971.72;5012020;28;20045;-66
2024/01/26 03:24:59;;;;;;;14.13;4.65;;;;;;;9.15;100.00;101968.13;4991592;28;20131;-67
2024/01/26 03:27:24;;;;;;;15.88;5.03;;;;;;;9.15;100.00;101960.06;5009765;28;20046;-66
2024/01/26 03:29:50;;;;;;;13.57;4.95;;;;;;;9.16;100.00;101960.94;5010340;28;20029;-68
2024/01/26 03:32:15;;;;;;;14.70;4.85;;;;;;;9.16;100.00;101951.06;5011156;28;20026;-68
2024/01/26 03:34:40;;;;;;;15.73;4.78;;;;;;;9.17;100.00;101943.91;5011344;28;20576;-68
2024/01/26 03:37:06;;;;;;;14.90;5.38;;;;;;;9.19;100.00;101953.59;5012231;28;20124;-68
2024/01/26 03:39:32;;;;;;;19.98;6.28;;;;;;;9.20;100.00;101957.16;5011326;28;20496;-68
2024/01/26 03:41:57;;;;;;;15.10;5.18;;;;;;;9.21;100.00;101951.72;5012997;28;20029;-68
2024/01/26 03:44:23;;;;;;;15.32;5.15;;;;;;;9.21;100.00;101956.19;5012286;28;20076;-68
2024/01/26 03:46:48;;;;;;;13.73;4.40;;;;;;;9.22;100.00;101957.94;5013644;28;20401;-69
2024/01/26 03:49:13;;;;;;;15.82;6.03;;;;;;;9.23;100.00;101951.63;5011769;28;20029;-69
2024/01/26 03:51:39;;;;;;;15.40;5.32;;;;;;;9.25;100.00;101947.06;5010548;28;20084;-69
2024/01/26 03:54:04;;;;;;;17.35;6.18;;;;;;;9.25;100.00;101941.69;4992101;28;20099;-69
2024/01/26 03:56:30;;;;;;;17.52;6.00;;;;;;;9.25;100.00;101939.88;5010419;28;20033;-68
2024/01/26 03:58:55;;;;;;;15.55;5.47;;;;;;;9.25;100.00;101939.00;5011201;28;20084;-69
2024/01/26 04:01:20;;;;;;;15.60;6.20;;;;;;;9.26;100.00;101927.34;4995036;28;20481;-68
2024/01/26 04:03:46;;;;;;;18.58;6.30;;;;;;;9.25;100.00;101922.91;5010685;28;20068;-68
2024/01/26 04:06:11;;;;;;;17.20;6.22;;;;;;;9.28;100.00;101930.78;5009991;28;20033;-69
2024/01/26 04:08:37;;;;;;;19.67;7.20;;;;;;;9.26;100.00;101930.03;5009662;28;20040;-69
2024/01/26 04:11:02;;;;;;;20.15;7.03;;;;;;;9.27;100.00;101929.94;5011818;28;20116;-69
2024/01/26 04:13:27;;;;;;;18.83;6.38;;;;;;;9.29;100.00;101923.63;5009868;28;20192;-69
2024/01/26 04:15:53;;;;;;;20.23;7.60;;;;;;;9.29;100.00;101911.09;5010790;28;20365;-69
2024/01/26 04:18:18;;;;;;;19.23;7.18;;;;;;;9.30;100.00;101896.72;5008718;28;20445;-68
2024/01/26 04:20:43;;;;;;;18.25;7.28;;;;;;;9.31;100.00;101898.44;5008973;28;20036;-68
2024/01/26 04:23:09;;;;;;;18.27;7.93;;;;;;;9.31;100.00;101885.03;5008899;28;20044;-68
2024/01/26 04:25:34;;;;;;;20.95;7.85;;;;;;;9.30;100.00;101875.28;5007784;28;20056;-68
2024/01/26 04:27:59;;;;;;;21.00;8.25;;;;;;;9.30;100.00;101869.00;5008596;28;20477;-68
2024/01/26 04:30:24;;;;;;;20.05;7.75;;;;;;;9.29;100.00;101868.16;5006925;28;20422;-68
2024/01/26 04:32:50;;;;;;;21.13;8.82;;;;;;;9.30;100.00;101880.63;5007131;28;20025;-67
2024/01/26 04:35:15;;;;;;;20.00;7.55;;;;;;;9.28;100.00;101874.47;4993656;28;20052;-68
2024/01/26 04:37:41;;;;;;;21.80;8.10;;;;;;;9.29;100.00;101868.16;5007646;28;20439;-67
2024/01/26 04:40:07;;;;;;;20.80;8.63;;;;;;;9.30;100.00;101869.00;4991570;28;20045;-68
2024/01/26 04:42:33;;;;;;;20.48;8.95;;;;;;;9.30;100.00;101859.16;4989593;28;20061;-69
2024/01/26 04:44:59;;;;;;;19.63;7.40;;;;;;;9.30;100.00;101864.53;5004153;28;20025;-68
2024/01/26 04:47:24;;;;;;;19.73;7.60;;;;;;;9.30;100.00;101864.53;5004836;28;20041;-68
2024/01/26 04:49:50;;;;;;;21.15;8.43;;;;;;;9.30;100.00;101871.69;4990386;28;20037;-68
2024/01/26 04:52:15;;;;;;;20.20;8.00;;;;;;;9.30;100.00;101866.34;5008156;28;20148;-67
2024/01/26 04:54:40;;;;;;;20.25;7.07;;;;;;;9.30;100.00;101861.84;5006508;28;20036;-68
2024/01/26 04:57:06;;;;;;;21.33;8.00;;;;;;;9.30;100.00;101850.25;5007612;28;20032;-68
2024/01/26 04:59:32;;;;;;;21.35;8.80;;;;;;;9.30;100.00;101861.84;5007567;28;20030;-68
2024/01/26 05:01:57;;;;;;;19.02;7.45;;;;;;;9.30;100.00;101855.59;5009770;28;20025;-68
2024/01/26 05:04:22;;;;;;;20.23;7.95;;;;;;;9.30;100.00;101858.28;5008896;28;20022;-68
2024/01/26 05:06:48;;;;;;;23.20;7.50;;;;;;;9.30;100.00;101855.59;4989783;28;20032;-68
2024/01/26 05:09:14;;;;;;;21.38;8.25;;;;;;;9.29;100.00;101845.84;5007489;28;20060;-68
2024/01/26 05:11:39;;;;;;;19.38;7.97;;;;;;;9.29;100.00;101841.34;5007228;28;20033;-69
2024/01/26 05:14:04;;;;;;;18.38;8.25;;;;;;;9.29;100.00;101843.16;5003945;28;20034;-68
2024/01/26 05:16:30;;;;;;;18.80;7.20;;;;;;;9.28;100.00;101834.22;5005879;28;20091;-68
2024/01/26 05:18:55;;;;;;;18.98;8.13;;;;;;;9.29;100.00;101833.28;5006947;28;20552;-69
2024/01/26 05:21:20;;;;;;;18.52;7.28;;;;;;;9.29;100.00;101821.69;5006876;28;20065;-68
2024/01/26 05:23:46;;;;;;;25.48;8.90;;;;;;;9.29;100.00;101830.59;5007920;28;20034;-68
2024/01/26 05:26:11;;;;;;;19.75;7.93;;;;;;;9.28;100.00;101828.84;5008123;28;20408;-68
2024/01/26 05:28:36;;;;;;;18.83;7.43;;;;;;;9.29;100.00;101819.00;5008953;28;20556;-68
2024/01/26 05:31:02;;;;;;;18.75;8.07;;;;;;;9.27;100.00;101809.22;4991294;28;20018;-68
2024/01/26 05:33:28;;;;;;;19.58;8.45;;;;;;;9.25;100.00;101802.19;5006010;28;20359;-70
2024/01/26 05:35:53;;;;;;;21.27;7.65;;;;;;;9.23;100.00;101810.31;5007428;28;20033;-68
2024/01/26 05:38:18;;;;;;;18.90;7.47;;;;;;;9.22;100.00;101797.00;5007255;28;20034;-68
2024/01/26 05:40:45;;;;;;;19.92;8.13;;;;;;;9.18;100.00;101790.06;4989472;28;20449;-68
2024/01/26 05:43:10;;;;;;;20.45;8.20;;;;;;;9.17;100.00;101791.03;5006451;28;20826;-67
2024/01/26 05:45:35;;;;;;;19.85;8.30;;;;;;;9.15;100.00;101790.22;5007475;28;20052;-68
2024/01/26 05:48:01;;;;;;;21.23;8.65;;;;;;;9.13;100.00;101786.75;5004881;28;20204;-68
2024/01/26 05:50:26;;;;;;;20.50;8.50;;;;;;;9.10;100.00;101785.94;4988968;28;20038;-69
2024/01/26 05:52:52;;;;;;;21.48;8.50;;;;;;;9.09;100.00;101794.97;5002650;28;20679;-68
2024/01/26 05:55:18;;;;;;;18.80;7.20;;;;;;;9.07;100.00;101780.75;5006899;28;20113;-68
2024/01/26 05:57:43;;;;;;;21.65;8.15;;;;;;;9.08;100.00;101778.97;5007132;28;20025;-68
2024/01/26 06:00:09;;;;;;;19.30;7.40;;;;;;;9.05;100.00;101777.28;4989117;28;20060;-68
2024/01/26 06:02:35;;;;;;;19.35;7.57;;;;;;;9.04;100.00;101780.06;5004905;28;20037;-67
2024/01/26 06:05:00;;;;;;;20.50;8.45;;;;;;;9.03;100.00;101778.31;4989133;28;20517;-68
2024/01/26 06:07:25;;;;;;;19.83;7.95;;;;;;;9.03;100.00;101776.50;5005045;28;20153;-68
2024/01/26 06:09:51;;;;;;;19.45;7.55;;;;;;;9.02;100.00;101777.47;4988947;28;20064;-68
2024/01/26 06:12:16;;;;;;;20.52;8.15;;;;;;;9.01;100.00;101765.00;5006548;28;20095;-68
2024/01/26 06:14:41;;;;;;;20.45;8.35;;;;;;;9.02;100.00;101773.88;5002229;28;20052;-68
2024/01/26 06:17:07;;;;;;;21.63;8.73;;;;;;;9.02;100.00;101766.72;5003736;28;20029;-68
2024/01/26 06:19:32;;;;;;;20.33;8.48;;;;;;;9.02;100.00;101761.38;5002986;28;20560;-68
2024/01/26 06:21:57;;;;;;;20.85;8.63;;;;;;;9.02;100.00;101756.00;5006529;28;20029;-68
2024/01/26 06:24:22;;;;;;;21.40;9.40;;;;;;;9.02;100.00;101747.06;5006648;28;20105;-68
2024/01/26 06:26:48;;;;;;;22.02;8.82;;;;;;;9.02;100.00;101758.69;5005291;28;20133;-68
2024/01/26 06:29:13;;;;;;;20.85;8.63;;;;;;;9.04;100.00;101764.81;5006538;28;20030;-69
2024/01/26 06:31:38;;;;;;;19.73;7.82;;;;;;;9.03;100.00;101757.72;4988482;28;20029;-68
2024/01/26 06:34:04;;;;;;;21.63;8.82;;;;;;;9.05;100.00;101755.00;5005147;28;20041;-68
2024/01/26 06:36:29;;;;;;;20.45;8.32;;;;;;;9.04;100.00;101762.16;5004632;28;20022;-68
2024/01/26 06:38:54;;;;;;;20.17;8.32;;;;;;;9.06;100.00;101765.63;5006463;28;20105;-68
2024/01/26 06:41:19;;;;;;;19.77;7.43;;;;;;;9.06;100.00;101760.28;4987190;28;20033;-69
2024/01/26 06:43:51;;;;;;;19.15;8.48;;;;;;;9.08;100.00;101765.56;5000907;28;20062;-66
2024/01/26 06:46:21;;;;;;;21.00;8.45;;;;;;;9.08;100.00;101760.19;5002940;28;20455;-66
2024/01/26 06:48:46;;;;;;;20.58;8.23;;;;;;;9.09;100.00;101765.47;5000985;28;20108;-67
2024/01/26 06:51:11;;;;;;;19.98;7.55;;;;;;;9.10;100.00;101761.81;5006390;28;20213;-66
2024/01/26 06:53:37;;;;;;;20.40;7.95;;;;;;;9.10;100.00;101751.09;5002621;28;20044;-67
2024/01/26 06:56:02;;;;;;;20.13;7.82;;;;;;;9.13;100.00;101744.72;5003553;28;20512;-66
2024/01/26 06:58:27;;;;;;;19.35;7.13;;;;;;;9.15;100.00;101752.66;5005150;28;20029;-67
2024/01/26 07:00:53;;;;;;;20.40;8.95;;;;;;;9.14;100.00;101730.34;5003736;28;20132;-67
2024/01/26 07:03:18;;;;;;;22.42;8.60;;;;;;;9.17;100.00;101742.75;4984788;28;20084;-67
2024/01/26 07:05:44;;;;;;;21.65;9.25;;;;;;;9.17;100.00;101753.47;5005240;28;20037;-66
2024/01/26 07:08:09;;;;;;;22.35;8.60;;;;;;;9.16;100.00;101744.53;5005228;28;20022;-67
2024/01/26 07:10:34;;;;;;;20.08;8.38;;;;;;;9.17;100.00;101729.34;5008008;28;20422;-67
2024/01/26 07:13:00;;;;;;;21.23;8.68;;;;;;;9.18;100.00;101731.03;5006383;28;20028;-67
2024/01/26 07:15:25;;;;;;;20.33;8.45;;;;;;;9.18;100.00;101720.31;5005561;28;20029;-67
2024/01/26 07:17:50;;;;;;;20.05;7.60;;;;;;;9.19;100.00;101727.44;5003494;28;20026;-66
2024/01/26 07:20:16;;;;;;;21.65;8.98;;;;;;;9.21;100.00;101736.25;5005912;28;20116;-67
2024/01/26 07:22:42;;;;;;;21.98;8.75;;;;;;;9.22;100.00;101721.91;4987363;28;20504;-66
2024/01/26 07:25:11;;;;;;;20.33;8.25;;;;;;;9.24;100.00;101723.56;5004233;28;20030;-66
2024/01/26 07:27:37;;;;;;;19.38;8.00;;;;;;;9.26;100.00;101726.16;5005568;28;20078;-67
2024/01/26 07:30:05;;;;;;;19.60;8.57;;;;;;;9.29;100.00;101717.06;4987640;28;20053;-66
2024/01/26 07:32:31;;;;;;;19.77;8.80;;;;;;;9.30;100.00;101716.09;5004417;28;20030;-66
2024/01/26 07:34:56;;;;;;;20.63;7.85;;;;;;;9.32;100.00;101715.09;5005711;28;20342;-67
2024/01/26 07:37:21;;;;;;;21.13;8.82;;;;;;;9.33;100.00;101714.16;5004821;28;20025;-66
2024/01/26 07:39:47;;;;;;;19.05;8.07;;;;;;;9.36;100.00;101718.47;5004829;28;20482;-66
2024/01/26 07:42:12;;;;;;;19.45;8.38;;;;;;;9.36;100.00;101713.13;5001721;28;20025;-66
2024/01/26 07:44:40;;;;;;;24.73;8.45;;;;;;;9.38;100.00;101716.56;5004506;28;20088;-68
2024/01/26 07:47:06;;;;;;;20.60;8.18;;;;;;;9.40;100.00;101733.44;5003425;28;20048;-66
2024/01/26 07:49:31;;;;;;;21.15;8.93;;;;;;;9.42;100.00;101731.56;5004660;28;20061;-67
2024/01/26 07:51:56;;;;;;;19.58;8.52;;;;;;;9.45;100.00;101734.94;4992471;28;20064;-69
2024/01/26 07:54:21;;;;;;;19.88;7.55;;;;;;;9.47;100.00;101758.13;5004827;28;20030;-69
2024/01/26 07:56:47;;;;;;;20.77;8.27;;;;;;;9.48;100.00;101763.41;4987049;28;20457;-69
2024/01/26 07:59:12;;;;;;;20.38;7.82;;;;;;;9.51;100.00;101754.34;4987324;28;20042;-69
2024/01/26 08:01:37;;;;;;;20.48;7.78;;;;;;;9.53;100.00;101763.16;5004390;28;20117;-69
2024/01/26 08:04:03;;;;;;;19.65;8.25;;;;;;;9.55;100.00;101772.88;5005083;28;20026;-70
2024/01/26 08:06:28;;;;;;;19.95;7.57;;;;;;;9.58;100.00;101778.06;5010353;28;20034;-69
2024/01/26 08:08:53;;;;;;;18.85;7.65;;;;;;;9.61;100.00;101774.38;5009749;28;20033;-69
2024/01/26 08:11:19;;;;;;;20.55;7.78;;;;;;;9.61;100.00;101769.84;5010515;28;20034;-69
2024/01/26 08:13:44;;;;;;;20.60;7.20;;;;;;;9.63;100.00;101769.75;5009818;28;20037;-69
2024/01/26 08:16:15;;;;;;;17.40;7.55;;;;;;;9.66;100.00;101777.66;5010550;28;20111;-69
2024/01/26 08:18:40;;;;;;;18.17;7.13;;;;;;;9.68;100.00;101769.50;5010058;28;20048;-69
2024/01/26 08:21:06;;;;;;;19.80;7.80;;;;;;;9.71;100.00;101778.28;5009571;28;20038;-70
2024/01/26 08:23:31;;;;;;;19.23;6.85;;;;;;;9.72;100.00;101776.44;5009357;28;20026;-70
2024/01/26 08:25:56;;;;;;;17.75;6.93;;;;;;;9.73;100.00;101771.00;5004849;28;20608;-69
2024/01/26 08:28:22;;;;;;;21.77;7.03;;;;;;;9.73;100.00;101776.34;5007482;28;20052;-69
2024/01/26 08:30:47;;;;;;;18.25;6.65;;;;;;;9.75;100.00;101769.09;5008495;28;20059;-70
2024/01/26 08:33:12;;;;;;;20.63;7.38;;;;;;;9.77;100.00;101775.25;5006791;28;20029;-69
2024/01/26 08:35:37;;;;;;;21.27;6.82;;;;;;;9.78;100.00;101782.34;5007947;28;20038;-69
2024/01/26 08:38:03;;;;;;;17.45;7.05;;;;;;;9.79;100.00;101794.84;5005332;28;20121;-69
2024/01/26 08:40:28;;;;;;;19.83;6.93;;;;;;;9.80;100.00;101783.13;4990660;28;20026;-69
2024/01/26 08:42:54;;;;;;;17.67;6.32;;;;;;;9.82;100.00;101782.19;5007226;28;20362;-69
2024/01/26 08:45:19;;;;;;;17.42;7.10;;;;;;;9.83;100.00;101798.22;5007744;28;20450;-69
2024/01/26 08:47:44;;;;;;;21.67;7.15;;;;;;;9.83;100.00;101787.47;5006713;28;20018;-69
2024/01/26 08:50:11;;;;;;;17.75;6.50;;;;;;;9.83;100.00;101789.31;5007881;28;20069;-69
2024/01/26 08:52:36;;;;;;;19.75;7.40;;;;;;;9.83;100.00;101786.63;5003132;28;20049;-69
2024/01/26 08:55:02;;;;;;;19.08;7.72;;;;;;;9.83;100.00;101783.94;5006995;28;20053;-69
2024/01/26 08:57:28;;;;;;;19.67;8.40;;;;;;;9.85;100.00;101782.00;5006342;28;20105;-69
2024/01/26 08:59:53;;;;;;;18.63;7.68;;;;;;;9.87;100.00;101788.16;4988971;28;20014;-69
2024/01/26 09:02:18;;;;;;;19.17;8.02;;;;;;;9.87;100.00;101797.09;5007259;28;20109;-68
2024/01/26 09:04:44;;;;;;;23.38;9.07;;;;;;;9.87;100.00;101799.78;5004512;28;20096;-69
2024/01/26 09:07:09;;;;;;;21.00;8.43;;;;;;;9.89;100.00;101794.31;5008538;28;20038;-68
2024/01/26 09:09:34;;;;;;;20.90;8.43;;;;;;;9.89;100.00;101794.31;4992599;28;20045;-68
2024/01/26 09:12:00;;;;;;;20.10;8.30;;;;;;;9.90;100.00;101798.75;5006167;28;20506;-68
2024/01/26 09:14:25;;;;;;;19.17;8.25;;;;;;;9.89;100.00;101811.28;5006927;28;20113;-68
2024/01/26 09:16:51;;;;;;;19.52;8.10;;;;;;;9.90;100.00;101855.13;5006079;28;20041;-68
2024/01/26 09:19:17;;;;;;;18.85;6.05;;;;;;;9.87;100.00;101860.66;5005601;28;20034;-68
2024/01/26 09:21:43;;;;;;;17.52;5.75;;;;;;;9.85;100.00;101849.13;5007223;28;20049;-67
2024/01/26 09:24:09;;;;;;;16.85;6.07;;;;;;;9.86;100.00;101850.88;4990134;28;20026;-68
2024/01/26 09:26:34;;;;;;;13.07;4.22;;;;;;;9.86;100.00;101864.31;4988199;28;20108;-68
2024/01/26 09:29:00;;;;;;;12.38;3.65;;;;;;;9.86;100.00;101864.31;5007709;28;20100;-69
2024/01/26 09:31:25;;;;;;;14.73;3.75;;;;;;;9.90;100.00;101865.88;5007572;28;20112;-68
2024/01/26 09:33:51;;;;;;;11.82;3.72;;;;;;;9.89;100.00;101883.78;5005211;28;20105;-68
2024/01/26 09:36:16;;;;;;;12.63;3.50;;;;;;;9.89;100.00;101881.09;5005838;28;20022;-68
2024/01/26 09:38:41;;;;;;;18.38;4.20;;;;;;;9.88;100.00;101878.50;4981401;28;20128;-68
2024/01/26 09:41:07;;;;;;;13.15;3.45;;;;;;;9.86;100.00;101886.66;4989674;28;20038;-68
2024/01/26 09:43:32;;;;;;;15.52;3.78;;;;;;;9.85;100.00;101910.91;4988845;28;20125;-68
2024/01/26 09:45:58;;;;;;;13.10;3.45;;;;;;;9.83;100.00;101915.50;5007364;28;20100;-68
2024/01/26 09:48:23;;;;;;;17.00;3.60;;;;;;;9.80;100.00;101941.53;5006005;28;20033;-68
2024/01/26 09:50:51;;;;;;;15.00;3.40;;;;;;;9.77;100.00;101965.84;4989730;28;20018;-68
2024/01/26 09:53:18;;;;;;;18.50;3.10;;;;;;;9.63;100.00;101984.50;5007713;28;20096;-68
2024/01/26 09:55:47;;;;;;;19.52;3.30;;;;;;;9.50;100.00;101999.47;5006585;28;20117;-67
2024/01/26 09:58:14;;;;;;;16.15;3.00;;;;;;;9.36;100.00;102021.66;5006137;28;20042;-68
2024/01/26 10:00:40;;;;;;;15.00;2.67;;;;;;;9.28;100.00;102019.31;5002735;28;20121;-68
2024/01/26 10:03:06;;;;;;;19.23;3.53;;;;;;;9.26;100.00;102045.38;5005529;28;20087;-68
2024/01/26 10:05:31;;;;;;;22.00;3.67;;;;;;;9.21;100.00;102059.00;5006270;28;20030;-68
2024/01/26 10:07:57;;;;;;;15.57;3.33;;;;;;;9.22;100.00;102059.88;5007383;28;20031;-68
2024/01/26 10:10:23;;;;;;;12.27;2.90;;;;;;;9.15;100.00;102042.31;5006614;28;20104;-68
2024/01/26 10:12:50;;;;;;;12.50;2.97;;;;;;;9.08;100.00;102060.53;5009741;28;20068;-68
2024/01/26 10:15:15;;;;;;;14.70;3.28;;;;;;;9.02;100.00;102059.03;5010806;28;20438;-68
2024/01/26 10:17:43;;;;;;;20.05;3.72;;;;;;;9.00;100.00;102065.38;5007748;28;20100;-68
2024/01/26 10:20:13;;;;;;;15.63;3.05;;;;;;;9.00;100.00;102065.38;5006494;28;20034;-68
2024/01/26 10:22:39;;;;;;;13.63;2.75;;;;;;;8.99;100.00;102080.63;4989855;28;20153;-68
2024/01/26 10:25:05;;;;;;;14.35;3.22;;;;;;;9.01;100.00;102078.72;5008919;28;20044;-68
2024/01/26 10:27:30;;;;;;;14.43;2.95;;;;;;;9.01;100.00;102084.09;5006150;28;20045;-68
2024/01/26 10:29:56;;;;;;;16.95;3.08;;;;;;;9.02;100.00;102093.88;4988829;28;20445;-68
2024/01/26 10:32:29;;;;;;;15.55;3.10;;;;;;;9.01;100.00;102108.22;4988981;28;20176;-68
2024/01/26 10:34:59;;;;;;;17.02;2.97;;;;;;;9.04;100.00;102107.22;5005268;28;20021;-68
2024/01/26 10:37:29;;;;;;;19.30;3.80;;;;;;;9.04;100.00;102116.13;5006568;28;20465;-68
2024/01/26 10:39:58;;;;;;;16.65;4.32;;;;;;;9.06;100.00;102124.09;5006544;28;20024;-68
2024/01/26 10:42:26;;;;;;;14.57;3.08;;;;;;;9.13;100.00;102125.56;4992890;28;20040;-68
2024/01/26 10:44:52;;;;;;;19.80;4.30;;;;;;;9.17;100.00;102128.97;5008688;28;20041;-68
2024/01/26 10:47:18;;;;;;;16.70;3.22;;;;;;;9.26;100.00;102144.63;4992185;28;20465;-68
2024/01/26 10:49:48;;;;;;;21.08;4.05;;;;;;;9.29;100.00;102147.16;5011165;28;20026;-68
2024/01/26 10:52:17;;;;;;;17.83;3.83;;;;;;;9.34;100.00;102157.66;5010887;28;20045;-68
2024/01/26 10:54:47;;;;;;;18.73;3.70;;;;;;;9.35;100.00;102180.88;5007972;28;20584;-68
2024/01/26 10:57:13;;;;;;;16.67;3.55;;;;;;;9.36;100.00;102191.53;4982146;28;20045;-68
2024/01/26 10:59:41;;;;;;;16.33;2.80;;;;;;;9.32;100.00;102173.84;5006622;28;20100;-68
2024/01/26 11:02:12;;;;;;;27.10;3.60;;;;;;;9.24;100.00;102178.72;5009444;28;20034;-68
2024/01/26 11:04:40;;;;;;;13.73;3.03;;;;;;;9.16;100.00;102188.91;5011114;28;20037;-68
2024/01/26 11:07:07;;;;;;;11.88;2.92;;;;;;;9.12;100.00;102203.41;5010551;28;20042;-68
2024/01/26 11:09:38;;;;;;;20.00;3.20;;;;;;;9.08;100.00;102229.50;5009223;28;20054;-68